Time;durP1;ratioP1;P1;durP2;ratioP2;P2;SDS_P1;SDS_P2;PMS_P1;PMS_P2;Temp;Humidity;BMP_temperature;BMP_pressure;BME280_temperature;BME280_humidity;BME280_pressure;Samples;Min_cycle;Max_cycle;Signal;HPM_P1;HPM_P2
2022/07/10 00:00:06;;;;;;;20.10;11.38;;;;;;;;;;3365746;42;20098;-58
2022/07/10 00:02:32;;;;;;;19.52;11.75;;;;;;;;;;3365813;42;20088;-58
2022/07/10 00:04:57;;;;;;;24.03;12.40;;;;;;;;;;3366721;42;20084;-59
2022/07/10 00:07:23;;;;;;;20.00;11.88;;;;;;;;;;3367580;42;20088;-59
2022/07/10 00:09:49;;;;;;;19.40;11.80;;;;;;;;;;3367549;42;20574;-55
2022/07/10 00:12:15;;;;;;;22.33;12.27;;;;;;;;;;3367712;42;20084;-59
2022/07/10 00:14:41;;;;;;;19.23;12.07;;;;;;;;;;3367216;42;20099;-58
2022/07/10 00:17:07;;;;;;;20.55;11.88;;;;;;;;;;3367393;42;20099;-59
2022/07/10 00:19:33;;;;;;;20.13;12.35;;;;;;;;;;3367431;42;20143;-59
2022/07/10 00:21:59;;;;;;;19.00;11.30;;;;;;;;;;3365719;42;20080;-59
2022/07/10 00:24:25;;;;;;;17.23;11.60;;;;;;;;;;3367728;42;20533;-59
2022/07/10 00:26:51;;;;;;;21.65;11.30;;;;;;;;;;3367190;42;20114;-56
2022/07/10 00:29:16;;;;;;;18.03;11.83;;;;;;;;;;3366884;42;20084;-58
2022/07/10 00:31:42;;;;;;;17.95;11.23;;;;;;;;;;3367449;42;20647;-58
2022/07/10 00:34:08;;;;;;;19.23;11.95;;;;;;;;;;3356716;42;20076;-58
2022/07/10 00:36:34;;;;;;;19.27;12.35;;;;;;;;;;3351324;42;20092;-59
2022/07/10 00:39:00;;;;;;;17.57;11.37;;;;;;;;;;3358684;42;20455;-59
2022/07/10 00:41:26;;;;;;;17.98;11.50;;;;;;;;;;3367288;42;20095;-59
2022/07/10 00:43:57;;;;;;;20.27;11.85;;;;;;;;;;3354271;42;20088;-57
2022/07/10 00:46:24;;;;;;;17.08;11.18;;;;;;;;;;3369148;42;20123;-58
2022/07/10 00:48:50;;;;;;;19.90;12.10;;;;;;;;;;3367866;42;20099;-58
2022/07/10 00:51:17;;;;;;;17.55;11.13;;;;;;;;;;3366711;42;20095;-59
2022/07/10 00:53:44;;;;;;;16.65;10.93;;;;;;;;;;3366729;42;20119;-57
2022/07/10 00:56:11;;;;;;;18.20;11.27;;;;;;;;;;3366604;42;20083;-60
2022/07/10 00:58:39;;;;;;;19.98;11.55;;;;;;;;;;3363243;42;20083;-58
2022/07/10 01:01:05;;;;;;;17.13;10.70;;;;;;;;;;3357893;42;20080;-59
2022/07/10 01:03:31;;;;;;;16.92;10.57;;;;;;;;;;3365424;42;20143;-58
2022/07/10 01:05:58;;;;;;;19.27;11.40;;;;;;;;;;3365008;42;20143;-57
2022/07/10 01:08:24;;;;;;;18.90;11.02;;;;;;;;;;3366704;42;20111;-61
2022/07/10 01:10:50;;;;;;;20.05;11.73;;;;;;;;;;3366410;42;20196;-58
2022/07/10 01:13:16;;;;;;;20.07;11.97;;;;;;;;;;3349877;42;20109;-60
2022/07/10 01:15:42;;;;;;;19.92;11.32;;;;;;;;;;3366849;42;20470;-59
2022/07/10 01:18:09;;;;;;;20.02;11.57;;;;;;;;;;3357074;42;20106;-58
2022/07/10 01:20:35;;;;;;;20.08;11.80;;;;;;;;;;3354016;42;20104;-59
2022/07/10 01:23:01;;;;;;;17.63;10.93;;;;;;;;;;3363963;42;20076;-58
2022/07/10 01:25:28;;;;;;;17.92;11.15;;;;;;;;;;3366911;42;20596;-59
2022/07/10 01:27:54;;;;;;;18.30;11.25;;;;;;;;;;3366429;42;20542;-58
2022/07/10 01:30:20;;;;;;;18.30;11.48;;;;;;;;;;3367006;42;20075;-58
2022/07/10 01:32:46;;;;;;;19.33;11.75;;;;;;;;;;3366529;42;20091;-58
2022/07/10 01:35:12;;;;;;;18.13;11.20;;;;;;;;;;3366727;42;20139;-59
2022/07/10 01:37:39;;;;;;;19.50;11.82;;;;;;;;;;3355296;42;20124;-59
2022/07/10 01:40:06;;;;;;;19.08;11.60;;;;;;;;;;3365099;42;20080;-56
2022/07/10 01:42:32;;;;;;;18.95;11.18;;;;;;;;;;3358010;42;20101;-58
2022/07/10 01:44:58;;;;;;;17.63;11.17;;;;;;;;;;3365079;42;20084;-58
2022/07/10 01:47:25;;;;;;;17.33;10.82;;;;;;;;;;3366218;42;20131;-58
2022/07/10 01:49:53;;;;;;;16.20;10.85;;;;;;;;;;3366616;42;20103;-58
2022/07/10 01:52:20;;;;;;;16.13;10.18;;;;;;;;;;3367507;42;20195;-59
2022/07/10 01:54:47;;;;;;;17.30;10.43;;;;;;;;;;3369453;42;20751;-59
2022/07/10 01:57:13;;;;;;;16.67;10.33;;;;;;;;;;3368828;42;20099;-59
2022/07/10 01:59:39;;;;;;;18.90;10.40;;;;;;;;;;3354679;42;20574;-56
2022/07/10 02:02:06;;;;;;;19.88;11.90;;;;;;;;;;3366156;42;20097;-57
2022/07/10 02:04:44;;;;;;;16.80;10.85;;;;;;;;;;3365627;42;20171;-59
2022/07/10 02:07:21;;;;;;;16.58;10.32;;;;;;;;;;3353789;42;20238;-59
2022/07/10 02:09:47;;;;;;;19.63;11.50;;;;;;;;;;3363010;42;20150;-57
2022/07/10 02:12:14;;;;;;;16.60;10.40;;;;;;;;;;3347156;42;20597;-58
2022/07/10 02:14:40;;;;;;;18.15;10.60;;;;;;;;;;3355235;42;20625;-57
2022/07/10 02:17:06;;;;;;;16.40;10.15;;;;;;;;;;3366483;42;20107;-58
2022/07/10 02:19:32;;;;;;;15.90;10.60;;;;;;;;;;3357714;42;20139;-57
2022/07/10 02:21:59;;;;;;;18.77;10.87;;;;;;;;;;3366414;42;20084;-58
2022/07/10 02:24:25;;;;;;;20.15;11.55;;;;;;;;;;3351771;42;20226;-58
2022/07/10 02:26:51;;;;;;;19.33;11.65;;;;;;;;;;3357195;42;20083;-58
2022/07/10 02:29:17;;;;;;;19.08;10.77;;;;;;;;;;3366354;42;20207;-59
2022/07/10 02:31:43;;;;;;;17.43;10.93;;;;;;;;;;3366276;42;20135;-59
2022/07/10 02:34:10;;;;;;;18.23;11.23;;;;;;;;;;3357532;42;20096;-58
2022/07/10 02:36:38;;;;;;;18.77;11.82;;;;;;;;;;3357034;42;20096;-57
2022/07/10 02:39:04;;;;;;;20.02;12.10;;;;;;;;;;3366236;42;20139;-57
2022/07/10 02:41:30;;;;;;;19.92;12.27;;;;;;;;;;3361098;42;20095;-57
2022/07/10 02:43:56;;;;;;;17.97;10.60;;;;;;;;;;3367831;42;20550;-57
2022/07/10 02:46:22;;;;;;;19.63;11.80;;;;;;;;;;3356426;42;20551;-59
2022/07/10 02:48:48;;;;;;;16.95;10.98;;;;;;;;;;3368995;42;20131;-58
2022/07/10 02:51:14;;;;;;;21.08;12.20;;;;;;;;;;3367954;42;20498;-59
2022/07/10 02:53:40;;;;;;;18.57;12.20;;;;;;;;;;3368449;42;20199;-58
2022/07/10 02:56:06;;;;;;;19.48;11.98;;;;;;;;;;3359007;42;20099;-67
2022/07/10 02:58:33;;;;;;;19.77;12.82;;;;;;;;;;3352845;42;20087;-59
2022/07/10 03:00:59;;;;;;;22.60;13.48;;;;;;;;;;3368833;42;20135;-58
2022/07/10 03:03:25;;;;;;;25.98;13.75;;;;;;;;;;3366785;42;20110;-58
2022/07/10 03:05:51;;;;;;;24.90;13.77;;;;;;;;;;3368179;42;20095;-60
2022/07/10 03:08:17;;;;;;;22.50;13.82;;;;;;;;;;3367542;42;20095;-59
2022/07/10 03:10:43;;;;;;;20.70;13.35;;;;;;;;;;3367822;42;20080;-58
2022/07/10 03:13:09;;;;;;;19.70;12.88;;;;;;;;;;3359828;42;20087;-58
2022/07/10 03:15:35;;;;;;;22.17;14.27;;;;;;;;;;3359195;42;20084;-58
2022/07/10 03:18:01;;;;;;;23.00;14.98;;;;;;;;;;3366104;42;20099;-59
2022/07/10 03:20:27;;;;;;;22.48;14.43;;;;;;;;;;3366020;42;20083;-58
2022/07/10 03:22:53;;;;;;;20.55;13.35;;;;;;;;;;3365962;42;20483;-58
2022/07/10 03:25:19;;;;;;;18.70;12.33;;;;;;;;;;3365594;42;20169;-58
2022/07/10 03:27:45;;;;;;;18.05;12.63;;;;;;;;;;3366100;42;20084;-58
2022/07/10 03:30:11;;;;;;;17.73;11.63;;;;;;;;;;3361703;42;20111;-58
2022/07/10 03:32:37;;;;;;;19.85;12.43;;;;;;;;;;3364326;42;20091;-58
2022/07/10 03:35:03;;;;;;;17.27;11.33;;;;;;;;;;3358973;42;20206;-56
2022/07/10 03:37:29;;;;;;;19.60;11.75;;;;;;;;;;3366575;42;20186;-59
2022/07/10 03:39:55;;;;;;;17.40;12.15;;;;;;;;;;3367307;42;20561;-59
2022/07/10 03:42:21;;;;;;;16.75;11.98;;;;;;;;;;3367504;42;20075;-58
2022/07/10 03:44:47;;;;;;;18.50;11.47;;;;;;;;;;3368133;42;20106;-59
2022/07/10 03:47:13;;;;;;;17.02;11.57;;;;;;;;;;3362607;42;20235;-59
2022/07/10 03:49:39;;;;;;;16.67;10.38;;;;;;;;;;3368002;42;20230;-60
2022/07/10 03:52:05;;;;;;;17.05;10.70;;;;;;;;;;3350491;42;20548;-57
2022/07/10 03:54:31;;;;;;;14.67;10.33;;;;;;;;;;3357998;42;20680;-56
2022/07/10 03:59:42;;;;;;;15.18;10.38;;;;;;;;;;3343969;42;20083;-57
2022/07/10 04:02:08;;;;;;;16.95;10.52;;;;;;;;;;3367803;42;20092;-58
2022/07/10 04:04:34;;;;;;;15.97;10.30;;;;;;;;;;3360610;42;20639;-58
2022/07/10 04:07:00;;;;;;;14.60;9.73;;;;;;;;;;3352141;42;20092;-58
2022/07/10 04:09:26;;;;;;;15.30;9.05;;;;;;;;;;3359639;42;20127;-57
2022/07/10 04:11:52;;;;;;;15.55;8.95;;;;;;;;;;3358452;42;20075;-56
2022/07/10 04:14:18;;;;;;;13.50;9.17;;;;;;;;;;3366253;42;20083;-57
2022/07/10 04:16:44;;;;;;;15.38;9.90;;;;;;;;;;3367677;42;20099;-57
2022/07/10 04:19:10;;;;;;;18.95;10.50;;;;;;;;;;3368100;42;20169;-56
2022/07/10 04:21:36;;;;;;;32.67;15.95;;;;;;;;;;3367512;42;20136;-58
2022/07/10 04:24:03;;;;;;;44.17;18.23;;;;;;;;;;3367864;42;20103;-58
2022/07/10 04:26:29;;;;;;;40.97;18.88;;;;;;;;;;3367770;42;20147;-59
2022/07/10 04:28:55;;;;;;;41.42;17.45;;;;;;;;;;3367447;42;20088;-58
2022/07/10 04:31:21;;;;;;;34.38;16.73;;;;;;;;;;3367736;42;20222;-58
2022/07/10 04:33:48;;;;;;;27.57;14.10;;;;;;;;;;3366287;42;20517;-58
2022/07/10 04:36:14;;;;;;;18.73;12.30;;;;;;;;;;3367532;42;20154;-57
2022/07/10 04:38:40;;;;;;;18.48;11.25;;;;;;;;;;3365368;42;20288;-58
2022/07/10 04:41:06;;;;;;;16.58;10.18;;;;;;;;;;3367276;42;20611;-56
2022/07/10 04:43:32;;;;;;;16.93;9.50;;;;;;;;;;3367408;42;20598;-57
2022/07/10 04:45:58;;;;;;;15.48;9.52;;;;;;;;;;3356513;42;20100;-59
2022/07/10 04:48:24;;;;;;;14.57;9.40;;;;;;;;;;3364722;42;20182;-55
2022/07/10 04:50:50;;;;;;;14.02;8.75;;;;;;;;;;3367322;42;20087;-58
2022/07/10 04:53:16;;;;;;;13.33;7.87;;;;;;;;;;3367087;42;20100;-56
2022/07/10 04:55:41;;;;;;;12.73;7.00;;;;;;;;;;3367229;42;20427;-58
2022/07/10 04:58:07;;;;;;;11.40;7.18;;;;;;;;;;3366523;42;20100;-57
2022/07/10 05:00:33;;;;;;;11.38;6.78;;;;;;;;;;3367437;42;20214;-58
2022/07/10 05:02:59;;;;;;;12.17;7.13;;;;;;;;;;3367640;42;20080;-60
2022/07/10 05:05:25;;;;;;;12.55;7.50;;;;;;;;;;3358511;42;20185;-57
2022/07/10 05:07:51;;;;;;;10.73;7.22;;;;;;;;;;3350669;42;20096;-58
2022/07/10 05:10:17;;;;;;;11.30;6.83;;;;;;;;;;3342602;42;20094;-59
2022/07/10 05:12:43;;;;;;;10.32;6.70;;;;;;;;;;3367723;42;20151;-59
2022/07/10 05:15:09;;;;;;;10.57;6.80;;;;;;;;;;3366201;42;20084;-58
2022/07/10 05:17:35;;;;;;;11.60;6.07;;;;;;;;;;3367289;42;20099;-59
2022/07/10 05:20:01;;;;;;;11.40;5.87;;;;;;;;;;3367374;42;20084;-59
2022/07/10 05:22:30;;;;;;;11.07;6.40;;;;;;;;;;3367487;42;20104;-60
2022/07/10 05:24:56;;;;;;;10.82;6.47;;;;;;;;;;3367243;42;20108;-58
2022/07/10 05:27:22;;;;;;;9.90;5.32;;;;;;;;;;3366395;42;20102;-58
2022/07/10 05:29:48;;;;;;;9.27;5.47;;;;;;;;;;3367366;42;20096;-60
2022/07/10 05:32:14;;;;;;;8.87;5.20;;;;;;;;;;3366594;42;20118;-58
2022/07/10 05:34:40;;;;;;;10.27;5.13;;;;;;;;;;3355018;42;20502;-58
2022/07/10 05:37:06;;;;;;;8.40;4.90;;;;;;;;;;3367705;42;20605;-60
2022/07/10 05:39:34;;;;;;;8.57;5.00;;;;;;;;;;3367079;42;20584;-59
2022/07/10 05:42:00;;;;;;;7.53;4.77;;;;;;;;;;3367118;42;20146;-58
2022/07/10 05:44:26;;;;;;;8.88;4.93;;;;;;;;;;3366179;42;20112;-58
2022/07/10 05:46:52;;;;;;;9.48;5.03;;;;;;;;;;3366600;42;20167;-60
2022/07/10 05:49:18;;;;;;;10.48;5.60;;;;;;;;;;3366917;42;20542;-58
2022/07/10 05:51:44;;;;;;;11.47;5.30;;;;;;;;;;3367169;42;20577;-60
2022/07/10 05:54:10;;;;;;;11.40;5.70;;;;;;;;;;3366794;42;20108;-59
2022/07/10 05:56:36;;;;;;;14.13;5.97;;;;;;;;;;3366737;42;20158;-58
2022/07/10 05:59:02;;;;;;;10.43;5.30;;;;;;;;;;3367014;42;20103;-58
2022/07/10 06:01:28;;;;;;;10.45;5.07;;;;;;;;;;3366415;42;20110;-59
2022/07/10 06:03:54;;;;;;;9.52;4.85;;;;;;;;;;3364390;42;20102;-60
2022/07/10 06:06:20;;;;;;;9.32;4.90;;;;;;;;;;3366251;42;20095;-59
2022/07/10 06:08:46;;;;;;;8.23;4.80;;;;;;;;;;3366877;42;20088;-58
2022/07/10 06:11:13;;;;;;;9.30;5.38;;;;;;;;;;3366699;42;20577;-58
2022/07/10 06:13:39;;;;;;;8.07;4.75;;;;;;;;;;3357885;42;20087;-59
2022/07/10 06:16:05;;;;;;;8.52;5.38;;;;;;;;;;3348652;42;20092;-59
2022/07/10 06:18:33;;;;;;;7.95;5.00;;;;;;;;;;3365458;42;20151;-58
2022/07/10 06:20:59;;;;;;;9.17;5.20;;;;;;;;;;3358282;42;20334;-59
2022/07/10 06:23:25;;;;;;;9.68;5.95;;;;;;;;;;3367527;42;20080;-59
2022/07/10 06:25:51;;;;;;;10.40;5.80;;;;;;;;;;3368624;42;20095;-59
2022/07/10 06:28:17;;;;;;;8.70;5.37;;;;;;;;;;3368132;42;20096;-59
2022/07/10 06:30:44;;;;;;;9.52;5.40;;;;;;;;;;3355217;42;20714;-58
2022/07/10 06:33:10;;;;;;;9.23;5.75;;;;;;;;;;3366478;42;20083;-58
2022/07/10 06:35:36;;;;;;;11.07;5.43;;;;;;;;;;3367070;42;20463;-59
2022/07/10 06:38:02;;;;;;;9.20;5.90;;;;;;;;;;3365811;42;20238;-58
2022/07/10 06:40:35;;;;;;;9.20;5.75;;;;;;;;;;3357472;42;20102;-58
2022/07/10 06:43:01;;;;;;;10.45;6.30;;;;;;;;;;3354498;42;20088;-57
2022/07/10 06:45:27;;;;;;;10.45;6.63;;;;;;;;;;3363556;42;20177;-58
2022/07/10 06:47:56;;;;;;;10.43;6.37;;;;;;;;;;3354958;42;20557;-59
2022/07/10 06:50:23;;;;;;;11.43;6.33;;;;;;;;;;3366339;42;20295;-59
2022/07/10 06:52:49;;;;;;;10.23;6.20;;;;;;;;;;3357318;42;20549;-58
2022/07/10 06:55:15;;;;;;;9.40;5.82;;;;;;;;;;3366075;42;20609;-61
2022/07/10 06:57:41;;;;;;;12.18;6.63;;;;;;;;;;3361695;42;20083;-58
2022/07/10 07:00:10;;;;;;;10.53;5.93;;;;;;;;;;3368664;42;20610;-61
2022/07/10 07:02:36;;;;;;;9.73;5.90;;;;;;;;;;3357521;42;20165;-59
2022/07/10 07:05:02;;;;;;;9.13;6.28;;;;;;;;;;3365961;42;20103;-58
2022/07/10 07:07:28;;;;;;;10.88;6.57;;;;;;;;;;3366152;42;20185;-57
2022/07/10 07:09:54;;;;;;;10.52;6.70;;;;;;;;;;3366066;42;20083;-59
2022/07/10 07:12:20;;;;;;;12.50;8.40;;;;;;;;;;3366403;42;20190;-57
2022/07/10 07:14:46;;;;;;;13.05;9.55;;;;;;;;;;3367472;42;20090;-57
2022/07/10 07:17:14;;;;;;;19.50;10.30;;;;;;;;;;3359219;42;20175;-60
2022/07/10 07:25:10;;;;;;;14.77;10.20;;;;;;;;;;3366456;42;20091;-59
2022/07/10 07:27:36;;;;;;;14.95;10.88;;;;;;;;;;3357555;42;20088;-59
2022/07/10 07:30:06;;;;;;;15.60;10.82;;;;;;;;;;3365705;42;20423;-58
2022/07/10 07:32:32;;;;;;;15.85;10.95;;;;;;;;;;3357463;42;20605;-55
2022/07/10 07:34:58;;;;;;;17.65;11.80;;;;;;;;;;3366553;42;20161;-58
2022/07/10 07:37:44;;;;;;;15.97;11.60;;;;;;;;;;3357611;42;20110;-55
2022/07/10 07:40:11;;;;;;;16.33;11.52;;;;;;;;;;3366484;42;20096;-56
2022/07/10 07:42:38;;;;;;;14.98;10.55;;;;;;;;;;3356598;42;20103;-57
2022/07/10 07:45:04;;;;;;;14.90;10.05;;;;;;;;;;3357388;42;20084;-53
2022/07/10 07:47:31;;;;;;;14.45;10.82;;;;;;;;;;3365625;42;20578;-56
2022/07/10 07:49:57;;;;;;;15.57;10.70;;;;;;;;;;3366003;42;20084;-58
2022/07/10 07:52:23;;;;;;;13.57;9.73;;;;;;;;;;3366133;42;20104;-56
2022/07/10 07:54:50;;;;;;;13.35;9.93;;;;;;;;;;3366165;42;20198;-55
2022/07/10 07:57:16;;;;;;;14.05;9.95;;;;;;;;;;3365829;42;20712;-54
2022/07/10 07:59:42;;;;;;;13.53;9.63;;;;;;;;;;3366183;42;20091;-54
2022/07/10 08:02:08;;;;;;;15.05;9.32;;;;;;;;;;3364010;42;20158;-55
2022/07/10 08:04:34;;;;;;;13.20;7.80;;;;;;;;;;3365682;42;20743;-55
2022/07/10 08:07:02;;;;;;;10.90;6.73;;;;;;;;;;3366009;42;20487;-57
2022/07/10 08:09:28;;;;;;;10.48;6.55;;;;;;;;;;3362559;42;20099;-54
2022/07/10 08:11:53;;;;;;;13.50;7.07;;;;;;;;;;3366244;42;20102;-54
2022/07/10 08:14:19;;;;;;;12.43;6.78;;;;;;;;;;3365610;42;20114;-53
2022/07/10 08:16:45;;;;;;;12.13;7.63;;;;;;;;;;3363612;42;20609;-51
2022/07/10 08:19:11;;;;;;;14.13;8.40;;;;;;;;;;3365872;42;20084;-55
2022/07/10 08:21:37;;;;;;;13.50;7.22;;;;;;;;;;3366301;42;20486;-56
2022/07/10 08:24:09;;;;;;;11.45;5.63;;;;;;;;;;3349588;42;20110;-55
2022/07/10 08:26:34;;;;;;;10.07;6.10;;;;;;;;;;3358170;42;20105;-54
2022/07/10 08:29:00;;;;;;;11.48;6.45;;;;;;;;;;3367369;42;20087;-52
2022/07/10 08:31:26;;;;;;;11.85;5.65;;;;;;;;;;3367508;42;20107;-57
2022/07/10 08:33:52;;;;;;;10.10;5.50;;;;;;;;;;3367544;42;20545;-56
2022/07/10 08:36:18;;;;;;;10.18;4.68;;;;;;;;;;3358808;42;20163;-49
2022/07/10 08:38:44;;;;;;;7.75;4.88;;;;;;;;;;3367664;42;20158;-50
2022/07/10 08:41:11;;;;;;;8.43;4.80;;;;;;;;;;3367079;42;20091;-53
2022/07/10 08:43:37;;;;;;;9.95;5.10;;;;;;;;;;3353072;42;20570;-51
2022/07/10 08:46:03;;;;;;;7.80;4.57;;;;;;;;;;3357310;42;20550;-55
2022/07/10 08:48:29;;;;;;;7.63;4.53;;;;;;;;;;3351246;42;20182;-54
2022/07/10 08:50:55;;;;;;;7.50;4.00;;;;;;;;;;3355685;42;20084;-57
2022/07/10 08:53:33;;;;;;;8.90;3.40;;;;;;;;;;3357273;42;20096;-56
2022/07/10 08:55:59;;;;;;;7.53;3.80;;;;;;;;;;3367398;42;20542;-56
2022/07/10 08:58:26;;;;;;;8.13;4.18;;;;;;;;;;3367452;42;20112;-53
2022/07/10 09:00:53;;;;;;;6.72;3.38;;;;;;;;;;3368192;42;20095;-56
2022/07/10 09:03:19;;;;;;;7.80;3.83;;;;;;;;;;3358623;42;20115;-56
2022/07/10 09:05:46;;;;;;;7.77;3.80;;;;;;;;;;3367229;42;20956;-56
2022/07/10 09:08:32;;;;;;;8.20;3.10;;;;;;;;;;3358561;42;20158;-56
2022/07/10 09:11:17;;;;;;;8.00;3.90;;;;;;;;;;3365901;42;20193;-55
2022/07/10 09:13:50;;;;;;;7.03;3.30;;;;;;;;;;3367510;42;20123;-54
2022/07/10 09:16:29;;;;;;;7.28;3.80;;;;;;;;;;3368040;42;20551;-55
2022/07/10 09:18:55;;;;;;;6.87;3.47;;;;;;;;;;3367315;42;20099;-52
2022/07/10 09:21:22;;;;;;;7.28;3.25;;;;;;;;;;3351715;42;20096;-55
2022/07/10 09:23:48;;;;;;;6.43;3.30;;;;;;;;;;3367388;42;20165;-56
2022/07/10 09:26:14;;;;;;;6.00;2.83;;;;;;;;;;3350442;42;20098;-60
2022/07/10 09:28:40;;;;;;;9.27;3.50;;;;;;;;;;3367262;42;20103;-52
2022/07/10 09:31:06;;;;;;;6.77;3.20;;;;;;;;;;3367463;42;20158;-52
2022/07/10 09:33:34;;;;;;;6.45;3.05;;;;;;;;;;3367199;42;20115;-54
2022/07/10 09:36:12;;;;;;;7.35;3.10;;;;;;;;;;3366778;42;20130;-53
2022/07/10 09:38:44;;;;;;;7.53;3.28;;;;;;;;;;3366824;42;20138;-56
2022/07/10 09:41:26;;;;;;;6.28;3.35;;;;;;;;;;3368052;42;20139;-57
2022/07/10 09:43:59;;;;;;;7.07;3.30;;;;;;;;;;3362781;42;20103;-57
2022/07/10 09:46:35;;;;;;;7.97;3.70;;;;;;;;;;3366864;42;20103;-55
2022/07/10 09:49:06;;;;;;;7.22;4.15;;;;;;;;;;3366655;42;20450;-58
2022/07/10 09:51:42;;;;;;;8.15;4.15;;;;;;;;;;3367317;42;20513;-52
2022/07/10 09:54:09;;;;;;;8.90;4.57;;;;;;;;;;3366554;42;20152;-54
2022/07/10 09:56:42;;;;;;;11.43;4.93;;;;;;;;;;3366780;42;20084;-57
2022/07/10 09:59:14;;;;;;;8.48;3.80;;;;;;;;;;3366723;42;20094;-54
2022/07/10 10:01:51;;;;;;;8.48;3.85;;;;;;;;;;3366814;42;20091;-55
2022/07/10 10:04:18;;;;;;;6.88;3.65;;;;;;;;;;3366681;42;20088;-55
2022/07/10 10:06:51;;;;;;;7.68;3.88;;;;;;;;;;3366124;42;20166;-54
2022/07/10 10:09:20;;;;;;;6.63;3.30;;;;;;;;;;3358374;42;20154;-52
2022/07/10 10:11:46;;;;;;;6.97;3.10;;;;;;;;;;3367137;42;20092;-52
2022/07/10 10:14:12;;;;;;;5.60;2.88;;;;;;;;;;3359306;42;20094;-54
2022/07/10 10:16:38;;;;;;;6.32;2.65;;;;;;;;;;3366293;42;20467;-55
2022/07/10 10:21:48;;;;;;;5.67;2.80;;;;;;;;;;3356543;42;20781;-53
2022/07/10 10:24:14;;;;;;;7.45;3.17;;;;;;;;;;3358371;42;20092;-52
2022/07/10 10:26:41;;;;;;;6.32;3.28;;;;;;;;;;3366697;42;20103;-56
2022/07/10 10:29:07;;;;;;;5.93;3.15;;;;;;;;;;3357931;42;20106;-59
2022/07/10 10:31:33;;;;;;;6.07;3.20;;;;;;;;;;3352027;42;20080;-57
2022/07/10 10:34:00;;;;;;;7.75;3.60;;;;;;;;;;3357668;42;20088;-58
2022/07/10 10:36:36;;;;;;;8.70;3.47;;;;;;;;;;3366385;42;20095;-54
2022/07/10 10:39:16;;;;;;;6.30;3.35;;;;;;;;;;3368331;42;20175;-56
2022/07/10 10:41:47;;;;;;;6.82;2.83;;;;;;;;;;3366775;42;20118;-59
2022/07/10 10:44:16;;;;;;;5.90;2.63;;;;;;;;;;3366735;42;20099;-59
2022/07/10 10:46:54;;;;;;;5.65;2.70;;;;;;;;;;3366772;42;20248;-58
2022/07/10 10:49:21;;;;;;;7.18;3.17;;;;;;;;;;3366357;42;20565;-57
2022/07/10 10:52:03;;;;;;;6.40;3.50;;;;;;;;;;3366307;42;20604;-59
2022/07/10 10:54:30;;;;;;;6.95;3.20;;;;;;;;;;3366171;42;20102;-59
2022/07/10 10:57:12;;;;;;;7.10;3.20;;;;;;;;;;3366437;42;20088;-59
2022/07/10 10:59:51;;;;;;;7.57;3.75;;;;;;;;;;3368148;42;20100;-57
2022/07/10 11:02:30;;;;;;;9.40;3.35;;;;;;;;;;3368783;42;20131;-59
2022/07/10 11:05:29;;;;;;;7.72;3.33;;;;;;;;;;3366280;42;20092;-59
2022/07/10 11:08:01;;;;;;;7.10;3.50;;;;;;;;;;3333033;42;20159;-57
2022/07/10 11:10:35;;;;;;;6.70;3.57;;;;;;;;;;3363998;42;20139;-57
2022/07/10 11:13:05;;;;;;;8.27;3.70;;;;;;;;;;3366513;42;20151;-61
2022/07/10 11:15:35;;;;;;;5.80;3.10;;;;;;;;;;3366424;42;20148;-60
2022/07/10 11:18:07;;;;;;;6.93;3.17;;;;;;;;;;3366297;42;20099;-61
2022/07/10 11:20:38;;;;;;;8.63;4.15;;;;;;;;;;3366065;42;20091;-60
2022/07/10 11:23:20;;;;;;;7.63;4.10;;;;;;;;;;3366279;42;20091;-58
2022/07/10 11:26:07;;;;;;;6.70;3.28;;;;;;;;;;3357592;42;20080;-58
2022/07/10 11:28:59;;;;;;;5.90;2.30;;;;;;;;;;3358264;42;20169;-58
2022/07/10 11:31:26;;;;;;;7.25;2.70;;;;;;;;;;3363714;42;20122;-58
2022/07/10 11:33:54;;;;;;;6.88;2.85;;;;;;;;;;3366324;42;20107;-58
2022/07/10 11:36:21;;;;;;;5.70;2.50;;;;;;;;;;3351027;42;20998;-58
2022/07/10 11:38:48;;;;;;;5.95;2.97;;;;;;;;;;3366792;42;20088;-60
2022/07/10 11:41:22;;;;;;;6.55;2.80;;;;;;;;;;3367536;42;20156;-59
2022/07/10 11:43:52;;;;;;;6.22;3.20;;;;;;;;;;3352363;42;20504;-59
2022/07/10 11:46:19;;;;;;;17.23;3.67;;;;;;;;;;3366117;42;20178;-57
2022/07/10 11:48:45;;;;;;;8.60;3.77;;;;;;;;;;3365655;42;20106;-59
2022/07/10 11:51:22;;;;;;;6.53;3.40;;;;;;;;;;3366156;42;20151;-59
2022/07/10 11:54:03;;;;;;;7.85;3.50;;;;;;;;;;3365461;42;20106;-59
2022/07/10 11:56:32;;;;;;;9.02;4.38;;;;;;;;;;3342080;42;20571;-54
2022/07/10 11:59:00;;;;;;;8.93;3.30;;;;;;;;;;3353911;42;20104;-58
2022/07/10 12:01:28;;;;;;;7.07;3.50;;;;;;;;;;3363802;42;20127;-57
2022/07/10 12:03:58;;;;;;;8.82;3.60;;;;;;;;;;3366390;42;20096;-58
2022/07/10 12:06:25;;;;;;;6.97;3.28;;;;;;;;;;3362184;42;20143;-58
2022/07/10 12:08:51;;;;;;;6.68;3.50;;;;;;;;;;3352628;42;20191;-58
2022/07/10 12:11:18;;;;;;;5.87;2.97;;;;;;;;;;3368120;42;20695;-59
2022/07/10 12:13:45;;;;;;;6.65;3.25;;;;;;;;;;3368127;42;20119;-58
2022/07/10 12:16:11;;;;;;;6.25;3.35;;;;;;;;;;3352063;42;20088;-61
2022/07/10 12:18:38;;;;;;;6.68;3.40;;;;;;;;;;3351062;42;20102;-60
2022/07/10 12:21:04;;;;;;;8.07;3.17;;;;;;;;;;3367642;42;20092;-60
2022/07/10 12:23:30;;;;;;;7.80;3.00;;;;;;;;;;3367602;42;20095;-60
2022/07/10 12:25:56;;;;;;;6.40;3.33;;;;;;;;;;3358575;42;20084;-61
2022/07/10 12:28:22;;;;;;;6.00;2.80;;;;;;;;;;3344694;42;20088;-60
2022/07/10 12:30:53;;;;;;;6.63;3.20;;;;;;;;;;3367668;42;20084;-61
2022/07/10 12:33:19;;;;;;;6.95;3.30;;;;;;;;;;3351106;42;20135;-59
2022/07/10 12:35:58;;;;;;;6.57;3.20;;;;;;;;;;3353852;42;20093;-60
2022/07/10 12:38:25;;;;;;;6.60;3.40;;;;;;;;;;3363084;42;20233;-62
2022/07/10 12:41:04;;;;;;;7.75;3.63;;;;;;;;;;3367008;42;20627;-59
2022/07/10 12:43:30;;;;;;;7.45;3.33;;;;;;;;;;3358822;42;20194;-58
2022/07/10 12:46:08;;;;;;;7.60;3.57;;;;;;;;;;3366244;42;20507;-60
2022/07/10 12:48:34;;;;;;;7.88;3.30;;;;;;;;;;3368564;42;20098;-61
2022/07/10 12:51:26;;;;;;;7.35;3.85;;;;;;;;;;3367362;42;20135;-60
2022/07/10 12:53:52;;;;;;;6.93;3.35;;;;;;;;;;3367395;42;20100;-59
2022/07/10 12:56:27;;;;;;;7.13;3.72;;;;;;;;;;3359165;42;20084;-60
2022/07/10 12:58:53;;;;;;;7.93;3.50;;;;;;;;;;3367435;42;20096;-58
2022/07/10 13:01:19;;;;;;;7.88;3.65;;;;;;;;;;3367346;42;20138;-61
2022/07/10 13:03:45;;;;;;;6.28;3.55;;;;;;;;;;3367494;42;20084;-59
2022/07/10 13:06:30;;;;;;;8.63;3.67;;;;;;;;;;3355032;42;20227;-60
2022/07/10 13:08:56;;;;;;;7.27;4.03;;;;;;;;;;3366829;42;20095;-60
2022/07/10 13:11:23;;;;;;;10.30;5.68;;;;;;;;;;3367329;42;20088;-61
2022/07/10 13:13:49;;;;;;;7.25;3.30;;;;;;;;;;3367763;42;20497;-59
2022/07/10 13:16:15;;;;;;;7.03;3.40;;;;;;;;;;3367719;42;20080;-60
2022/07/10 13:18:44;;;;;;;6.40;3.35;;;;;;;;;;3366622;42;20653;-59
2022/07/10 13:21:13;;;;;;;6.30;3.40;;;;;;;;;;3353128;42;20091;-60
2022/07/10 13:23:39;;;;;;;8.75;3.60;;;;;;;;;;3367270;42;20084;-60
2022/07/10 13:26:06;;;;;;;10.07;3.45;;;;;;;;;;3368525;42;20660;-59
2022/07/10 13:28:33;;;;;;;7.45;3.20;;;;;;;;;;3367904;42;20115;-59
2022/07/10 13:30:59;;;;;;;6.70;3.42;;;;;;;;;;3355806;42;20148;-59
2022/07/10 13:33:27;;;;;;;6.33;2.90;;;;;;;;;;3367529;42;20087;-59
2022/07/10 13:35:54;;;;;;;6.03;3.00;;;;;;;;;;3358408;42;20550;-59
2022/07/10 13:38:20;;;;;;;6.25;3.10;;;;;;;;;;3357400;42;20084;-59
2022/07/10 13:40:47;;;;;;;6.65;3.10;;;;;;;;;;3367032;42;20166;-59
2022/07/10 13:43:13;;;;;;;6.00;3.20;;;;;;;;;;3357390;42;20080;-58
2022/07/10 13:45:45;;;;;;;6.53;3.43;;;;;;;;;;3366790;42;20080;-58
2022/07/10 13:48:15;;;;;;;7.70;3.13;;;;;;;;;;3366793;42;20111;-60
2022/07/10 13:50:42;;;;;;;6.50;3.28;;;;;;;;;;3351492;42;20095;-60
2022/07/10 13:53:08;;;;;;;6.13;3.30;;;;;;;;;;3367798;42;20112;-59
2022/07/10 13:55:34;;;;;;;8.00;4.40;;;;;;;;;;3366702;42;20580;-56
2022/07/10 13:58:00;;;;;;;10.07;4.80;;;;;;;;;;3358658;42;20131;-59
2022/07/10 14:00:30;;;;;;;8.55;4.70;;;;;;;;;;3366893;42;20497;-58
2022/07/10 14:02:57;;;;;;;8.10;4.28;;;;;;;;;;3367206;42;20092;-59
2022/07/10 14:05:24;;;;;;;9.63;4.47;;;;;;;;;;3367412;42;20088;-60
2022/07/10 14:07:50;;;;;;;7.82;4.30;;;;;;;;;;3351156;42;20152;-59
2022/07/10 14:10:16;;;;;;;8.40;4.60;;;;;;;;;;3354868;42;20650;-61
2022/07/10 14:12:42;;;;;;;7.22;4.32;;;;;;;;;;3366642;42;20220;-59
2022/07/10 14:15:08;;;;;;;8.45;4.00;;;;;;;;;;3367039;42;20104;-59
2022/07/10 14:17:34;;;;;;;7.78;4.13;;;;;;;;;;3357667;42;20091;-58
2022/07/10 14:20:00;;;;;;;7.47;4.17;;;;;;;;;;3366881;42;20103;-58
2022/07/10 14:22:28;;;;;;;8.40;4.25;;;;;;;;;;3352492;42;20083;-59
2022/07/10 14:24:56;;;;;;;9.55;4.65;;;;;;;;;;3353369;42;20143;-60
2022/07/10 14:27:24;;;;;;;8.38;4.55;;;;;;;;;;3367345;42;20094;-59
2022/07/10 14:29:50;;;;;;;8.82;4.90;;;;;;;;;;3366543;42;20092;-61
2022/07/10 14:32:16;;;;;;;9.50;4.87;;;;;;;;;;3366624;42;20546;-61
2022/07/10 14:34:42;;;;;;;8.77;4.65;;;;;;;;;;3352438;42;20467;-57
2022/07/10 14:37:08;;;;;;;8.05;4.47;;;;;;;;;;3365784;42;20127;-59
2022/07/10 14:39:34;;;;;;;9.00;4.70;;;;;;;;;;3366992;42;20278;-59
2022/07/10 14:42:01;;;;;;;8.37;4.27;;;;;;;;;;3366731;42;20076;-61
2022/07/10 14:44:27;;;;;;;8.18;4.32;;;;;;;;;;3366586;42;20147;-60